Time;durP1;ratioP1;P1;durP2;ratioP2;P2;SDS_P1;SDS_P2;PMS_P1;PMS_P2;Temp;Humidity;BMP_temperature;BMP_pressure;BME280_temperature;BME280_humidity;BME280_pressure;Samples;Min_cycle;Max_cycle;Signal;HPM_P1;HPM_P2
2022/08/22 05:01:47;;;;;;;2.60;2.40;;;;;;;;;;5544169;22;20465;-78
2022/08/22 05:04:18;;;;;;;3.83;2.50;;;;;;;;;;5004280;28;20483;-78
2022/08/22 05:06:47;;;;;;;3.45;3.10;;;;;;;;;;5010971;28;20396;-78
2022/08/22 05:09:17;;;;;;;4.00;2.80;;;;;;;;;;4982732;28;20750;-78
2022/08/22 05:11:45;;;;;;;3.20;2.80;;;;;;;;;;5012208;28;20850;-79
2022/08/22 05:14:16;;;;;;;3.40;2.90;;;;;;;;;;5011320;28;20769;-78
2022/08/22 05:16:45;;;;;;;3.10;2.80;;;;;;;;;;5013437;28;20388;-78
2022/08/22 05:19:16;;;;;;;2.97;2.70;;;;;;;;;;5011046;28;20385;-78
2022/08/22 05:21:43;;;;;;;4.40;2.75;;;;;;;;;;5011848;28;20385;-78
2022/08/22 05:24:18;;;;;;;3.40;3.10;;;;;;;;;;5011945;28;20381;-79
2022/08/22 05:26:54;;;;;;;3.55;2.90;;;;;;;;;;5012157;28;20389;-79
2022/08/22 05:29:22;;;;;;;3.45;2.95;;;;;;;;;;5012058;28;20381;-79
2022/08/22 05:32:08;;;;;;;3.22;2.92;;;;;;;;;;5011714;28;20393;-79
2022/08/22 05:34:39;;;;;;;3.00;2.70;;;;;;;;;;5008709;28;20475;-79
2022/08/22 05:37:13;;;;;;;3.70;2.92;;;;;;;;;;5011769;28;20381;-77
2022/08/22 05:39:45;;;;;;;4.45;2.80;;;;;;;;;;5014354;28;20373;-78
2022/08/22 05:42:13;;;;;;;3.80;2.88;;;;;;;;;;5015402;28;20419;-78
2022/08/22 05:44:41;;;;;;;4.15;2.70;;;;;;;;;;5015273;28;20409;-78
2022/08/22 05:47:21;;;;;;;3.75;2.60;;;;;;;;;;5014916;28;20389;-78
2022/08/22 05:49:47;;;;;;;2.90;2.30;;;;;;;;;;5013456;28;20411;-79
2022/08/22 05:52:32;;;;;;;3.10;2.60;;;;;;;;;;5015229;28;20397;-78
2022/08/22 05:55:07;;;;;;;3.60;2.70;;;;;;;;;;5012481;28;20392;-79
2022/08/22 05:57:36;;;;;;;3.08;2.78;;;;;;;;;;5014850;28;20395;-79
2022/08/22 06:00:10;;;;;;;2.75;2.40;;;;;;;;;;5014902;28;20388;-78
2022/08/22 06:02:55;;;;;;;3.00;2.70;;;;;;;;;;5014617;28;20802;-79
2022/08/22 06:05:24;;;;;;;3.88;2.80;;;;;;;;;;5015240;28;20723;-79
2022/08/22 06:07:51;;;;;;;3.35;2.88;;;;;;;;;;5019116;28;20400;-79
2022/08/22 06:10:26;;;;;;;2.97;2.75;;;;;;;;;;5019130;28;20393;-79
2022/08/22 06:12:59;;;;;;;2.75;2.55;;;;;;;;;;5014811;28;20426;-79
2022/08/22 06:15:28;;;;;;;3.40;2.80;;;;;;;;;;4997312;28;20397;-79
2022/08/22 06:18:00;;;;;;;3.10;2.80;;;;;;;;;;5014529;28;20384;-79
2022/08/22 06:20:49;;;;;;;4.13;3.13;;;;;;;;;;5014514;28;20409;-79
2022/08/22 06:23:19;;;;;;;3.53;2.90;;;;;;;;;;5014715;28;20384;-79
2022/08/22 06:25:47;;;;;;;3.08;2.80;;;;;;;;;;5014495;28;20385;-79
2022/08/22 06:28:17;;;;;;;4.20;2.90;;;;;;;;;;5014287;28;20814;-79
2022/08/22 06:30:45;;;;;;;3.53;3.23;;;;;;;;;;5014241;28;20401;-80
2022/08/22 06:33:12;;;;;;;3.90;2.90;;;;;;;;;;5014199;28;20413;-79
2022/08/22 06:38:32;;;;;;;3.25;2.95;;;;;;;;;;5014569;28;20376;-79
2022/08/22 06:40:59;;;;;;;4.40;3.10;;;;;;;;;;5019091;28;20392;-80
2022/08/22 06:43:25;;;;;;;3.95;3.03;;;;;;;;;;5014067;28;20388;-80
2022/08/22 06:45:52;;;;;;;3.60;2.70;;;;;;;;;;5013818;28;20439;-80
2022/08/22 06:48:19;;;;;;;3.63;2.97;;;;;;;;;;5014026;28;20428;-80
2022/08/22 06:50:49;;;;;;;3.55;3.20;;;;;;;;;;5013670;28;20503;-79
2022/08/22 06:53:18;;;;;;;3.58;3.28;;;;;;;;;;5013855;28;20408;-79
2022/08/22 06:55:49;;;;;;;3.40;3.10;;;;;;;;;;5014686;28;20400;-79
2022/08/22 06:58:17;;;;;;;3.70;3.30;;;;;;;;;;5013449;28;20381;-79
2022/08/22 07:00:44;;;;;;;4.18;3.20;;;;;;;;;;5012918;28;20488;-79
2022/08/22 07:03:13;;;;;;;3.90;3.33;;;;;;;;;;5014444;28;20799;-80
2022/08/22 07:05:41;;;;;;;4.18;3.60;;;;;;;;;;5014169;28;20388;-79
2022/08/22 07:08:09;;;;;;;3.95;3.50;;;;;;;;;;5006567;28;20877;-79
2022/08/22 07:10:36;;;;;;;4.75;3.60;;;;;;;;;;5012126;28;20393;-79
2022/08/22 07:13:07;;;;;;;4.10;3.30;;;;;;;;;;5013808;28;20405;-79
2022/08/22 07:15:35;;;;;;;3.80;3.13;;;;;;;;;;5011769;28;20392;-79
2022/08/22 07:18:04;;;;;;;5.82;3.88;;;;;;;;;;5013389;28;20377;-79
2022/08/22 07:20:33;;;;;;;4.35;3.55;;;;;;;;;;5013389;28;20376;-79
2022/08/22 07:23:08;;;;;;;4.30;3.80;;;;;;;;;;5013333;28;20389;-79
2022/08/22 07:25:37;;;;;;;3.50;3.20;;;;;;;;;;4995701;28;20792;-79
2022/08/22 07:28:03;;;;;;;3.53;3.22;;;;;;;;;;5013039;28;20395;-79
2022/08/22 07:30:41;;;;;;;3.83;3.30;;;;;;;;;;5013103;28;20464;-80
2022/08/22 07:33:15;;;;;;;4.15;3.15;;;;;;;;;;5011786;28;20779;-79
2022/08/22 07:35:45;;;;;;;4.32;3.30;;;;;;;;;;4995280;28;20811;-80
2022/08/22 07:38:14;;;;;;;3.58;3.28;;;;;;;;;;5013376;28;20388;-79
2022/08/22 07:40:43;;;;;;;4.05;3.40;;;;;;;;;;5012455;28;20384;-79
2022/08/22 07:43:25;;;;;;;4.10;3.40;;;;;;;;;;5012817;28;20385;-79
2022/08/22 07:45:53;;;;;;;3.13;2.80;;;;;;;;;;5012157;28;20397;-79
2022/08/22 07:48:32;;;;;;;4.70;3.40;;;;;;;;;;4982444;28;20427;-80
2022/08/22 07:51:11;;;;;;;3.50;3.20;;;;;;;;;;5011781;28;20403;-81
2022/08/22 07:53:40;;;;;;;4.32;2.92;;;;;;;;;;5013097;28;20447;-79
2022/08/22 07:56:08;;;;;;;3.75;3.00;;;;;;;;;;5010539;28;20423;-82
2022/08/22 07:58:38;;;;;;;3.72;2.92;;;;;;;;;;4983039;28;20932;-81
2022/08/22 08:01:06;;;;;;;4.05;3.20;;;;;;;;;;5011041;28;20401;-82
2022/08/22 08:03:32;;;;;;;4.13;3.08;;;;;;;;;;4995085;28;20908;-82
2022/08/22 08:06:00;;;;;;;3.15;2.88;;;;;;;;;;5012706;28;20882;-81
2022/08/22 08:08:43;;;;;;;2.97;2.78;;;;;;;;;;5011790;28;20381;-82
2022/08/22 08:11:11;;;;;;;5.28;3.10;;;;;;;;;;5012597;28;20388;-82
2022/08/22 08:13:41;;;;;;;3.20;2.90;;;;;;;;;;5012652;28;20511;-82
2022/08/22 08:16:10;;;;;;;3.30;3.00;;;;;;;;;;5012537;28;20392;-82
2022/08/22 08:18:37;;;;;;;3.58;3.03;;;;;;;;;;5012658;28;20377;-82
2022/08/22 08:21:06;;;;;;;3.58;3.25;;;;;;;;;;5012424;28;20403;-82
2022/08/22 08:23:36;;;;;;;3.23;2.93;;;;;;;;;;5012726;28;20481;-81
2022/08/22 08:26:06;;;;;;;3.88;3.20;;;;;;;;;;5012478;28;20496;-81
2022/08/22 08:28:37;;;;;;;3.07;2.77;;;;;;;;;;5012484;28;20385;-81
2022/08/22 08:31:15;;;;;;;3.35;3.05;;;;;;;;;;5012307;28;20487;-81
2022/08/22 08:33:43;;;;;;;3.95;2.90;;;;;;;;;;5012424;28;20419;-81
2022/08/22 08:36:25;;;;;;;3.17;2.87;;;;;;;;;;5012390;28;20901;-80
2022/08/22 08:39:02;;;;;;;3.45;2.60;;;;;;;;;;5012609;28;20397;-81
2022/08/22 08:41:50;;;;;;;3.08;2.88;;;;;;;;;;5012268;28;20507;-83
2022/08/22 08:44:29;;;;;;;3.30;3.00;;;;;;;;;;5012424;28;20408;-83
2022/08/22 08:47:04;;;;;;;3.40;3.10;;;;;;;;;;5012612;28;20384;-83
2022/08/22 08:49:50;;;;;;;3.95;3.13;;;;;;;;;;5012322;28;20381;-83
2022/08/22 08:52:28;;;;;;;3.97;3.07;;;;;;;;;;4977991;28;20866;-81
2022/08/22 08:55:03;;;;;;;4.10;3.00;;;;;;;;;;5012269;28;20384;-82
2022/08/22 08:57:38;;;;;;;3.60;2.97;;;;;;;;;;5012673;28;20400;-82
2022/08/22 09:00:05;;;;;;;4.22;2.95;;;;;;;;;;5012156;28;20380;-82
2022/08/22 09:02:37;;;;;;;3.90;2.67;;;;;;;;;;5011989;28;20881;-82
2022/08/22 09:05:13;;;;;;;3.15;2.47;;;;;;;;;;5012051;28;20450;-82
2022/08/22 09:07:51;;;;;;;3.70;2.90;;;;;;;;;;5012285;28;20388;-82
2022/08/22 09:10:23;;;;;;;2.97;2.67;;;;;;;;;;5012148;28;20420;-82
2022/08/22 09:13:08;;;;;;;2.80;2.30;;;;;;;;;;5013768;28;20460;-82
2022/08/22 09:15:40;;;;;;;3.97;2.77;;;;;;;;;;5015360;28;20399;-82
2022/08/22 09:18:06;;;;;;;2.60;2.40;;;;;;;;;;5002136;28;20377;-82
2022/08/22 09:21:00;;;;;;;2.90;2.27;;;;;;;;;;5015665;28;20385;-82
2022/08/22 09:23:44;;;;;;;3.00;2.70;;;;;;;;;;5013768;28;20470;-82
2022/08/22 09:26:28;;;;;;;3.30;2.72;;;;;;;;;;5015472;28;20885;-82
2022/08/22 09:28:58;;;;;;;3.40;2.90;;;;;;;;;;5015523;28;20377;-82
2022/08/22 09:31:27;;;;;;;3.30;2.70;;;;;;;;;;5015485;28;20376;-82
2022/08/22 09:34:12;;;;;;;3.28;2.75;;;;;;;;;;5015711;28;20404;-82
2022/08/22 09:36:42;;;;;;;2.92;2.60;;;;;;;;;;5015376;28;20916;-82
2022/08/22 09:39:11;;;;;;;3.60;2.80;;;;;;;;;;5015359;28;20400;-82
2022/08/22 09:41:57;;;;;;;3.38;2.63;;;;;;;;;;5015209;28;20869;-82
2022/08/22 09:44:29;;;;;;;3.17;2.60;;;;;;;;;;4997760;28;20774;-82
2022/08/22 09:47:07;;;;;;;3.53;2.53;;;;;;;;;;5015456;28;20446;-83
2022/08/22 09:50:06;;;;;;;4.32;2.40;;;;;;;;;;5015179;28;20393;-82
2022/08/22 09:52:47;;;;;;;6.70;3.05;;;;;;;;;;4993100;28;20428;-82
2022/08/22 09:55:31;;;;;;;3.30;3.00;;;;;;;;;;5014976;28;20385;-82
2022/08/22 09:58:04;;;;;;;5.18;3.80;;;;;;;;;;5005880;28;20746;-83
2022/08/22 10:00:53;;;;;;;3.80;3.07;;;;;;;;;;5014885;28;20403;-82
2022/08/22 10:03:24;;;;;;;3.05;2.70;;;;;;;;;;5014883;28;20391;-82
2022/08/22 10:05:50;;;;;;;3.67;2.63;;;;;;;;;;5014922;28;20384;-82
2022/08/22 10:08:16;;;;;;;2.83;2.50;;;;;;;;;;5014758;28;20381;-82
2022/08/22 10:10:48;;;;;;;2.72;2.33;;;;;;;;;;4997320;28;20470;-83
2022/08/22 10:13:26;;;;;;;3.40;2.70;;;;;;;;;;5014722;28;20440;-82
2022/08/22 10:15:55;;;;;;;3.10;2.08;;;;;;;;;;5014779;28;20492;-83
2022/08/22 10:18:39;;;;;;;2.45;2.03;;;;;;;;;;5015118;28;20872;-83
2022/08/22 10:21:21;;;;;;;3.83;2.10;;;;;;;;;;5000378;28;20388;-84
2022/08/22 10:24:11;;;;;;;4.10;2.30;;;;;;;;;;5028321;28;20787;-83
2022/08/22 10:26:46;;;;;;;2.13;1.77;;;;;;;;;;5013574;28;20420;-83
2022/08/22 10:29:31;;;;;;;3.23;2.20;;;;;;;;;;5013776;28;20380;-83
2022/08/22 10:31:59;;;;;;;2.30;2.00;;;;;;;;;;5006539;28;20390;-83
2022/08/22 10:34:32;;;;;;;2.83;2.00;;;;;;;;;;5012965;28;20940;-84
2022/08/22 10:37:01;;;;;;;2.42;2.10;;;;;;;;;;5006129;28;20382;-83
2022/08/22 10:39:36;;;;;;;2.20;2.00;;;;;;;;;;5008175;28;20413;-84
2022/08/22 10:42:15;;;;;;;3.10;2.15;;;;;;;;;;5007437;28;20388;-84
2022/08/22 10:44:51;;;;;;;2.67;2.10;;;;;;;;;;5011526;28;20438;-84
2022/08/22 10:47:21;;;;;;;2.42;2.00;;;;;;;;;;5011744;28;20373;-83
2022/08/22 10:49:51;;;;;;;2.38;2.17;;;;;;;;;;5014090;28;20381;-84
2022/08/22 10:52:36;;;;;;;2.55;2.08;;;;;;;;;;5013798;28;20381;-84
2022/08/22 10:55:11;;;;;;;3.67;2.05;;;;;;;;;;5010668;28;20381;-84
2022/08/22 10:57:41;;;;;;;2.30;2.10;;;;;;;;;;5010482;28;20385;-83
2022/08/22 11:00:11;;;;;;;2.42;2.03;;;;;;;;;;5013805;28;20492;-84
2022/08/22 11:02:40;;;;;;;2.53;1.90;;;;;;;;;;5013699;28;20765;-84
2022/08/22 11:05:13;;;;;;;2.47;1.90;;;;;;;;;;5013818;28;20738;-84
2022/08/22 11:07:42;;;;;;;2.17;1.90;;;;;;;;;;5016306;28;20403;-84
2022/08/22 11:10:34;;;;;;;4.35;1.88;;;;;;;;;;5024563;28;20395;-86
2022/08/22 11:13:01;;;;;;;2.13;1.90;;;;;;;;;;5027211;28;20939;-85
2022/08/22 11:15:46;;;;;;;2.42;2.03;;;;;;;;;;5013944;28;20806;-84
2022/08/22 11:18:19;;;;;;;5.50;2.10;;;;;;;;;;5013664;28;20380;-86
2022/08/22 11:21:03;;;;;;;2.80;2.00;;;;;;;;;;5017820;28;20385;-84
2022/08/22 11:23:39;;;;;;;2.65;1.95;;;;;;;;;;5013648;28;20414;-87
2022/08/22 11:26:12;;;;;;;2.78;2.03;;;;;;;;;;5016899;28;20421;-86
2022/08/22 11:28:55;;;;;;;2.93;2.10;;;;;;;;;;5012467;28;20388;-85
2022/08/22 11:31:40;;;;;;;2.80;2.40;;;;;;;;;;5013413;28;20825;-85
2022/08/22 11:34:09;;;;;;;3.80;2.20;;;;;;;;;;5013497;28;20735;-85
2022/08/22 11:36:38;;;;;;;2.85;1.95;;;;;;;;;;5009401;28;20373;-82
2022/08/22 11:39:04;;;;;;;2.50;2.30;;;;;;;;;;5012780;28;20455;-83
2022/08/22 11:41:35;;;;;;;3.30;2.10;;;;;;;;;;5012981;28;20512;-83
2022/08/22 11:44:03;;;;;;;2.35;2.10;;;;;;;;;;5013216;28;20810;-84
2022/08/22 11:46:37;;;;;;;3.78;2.13;;;;;;;;;;5012996;28;20381;-84
2022/08/22 11:49:23;;;;;;;3.30;1.98;;;;;;;;;;5016593;28;20468;-84
2022/08/22 11:51:57;;;;;;;3.20;2.13;;;;;;;;;;5012448;28;20400;-82
2022/08/22 11:54:29;;;;;;;2.85;2.08;;;;;;;;;;5012948;28;20420;-83
2022/08/22 11:57:10;;;;;;;3.20;2.10;;;;;;;;;;5012712;28;20385;-83
2022/08/22 11:59:40;;;;;;;3.42;1.90;;;;;;;;;;5011658;28;20959;-82
2022/08/22 12:02:09;;;;;;;3.58;2.13;;;;;;;;;;5012601;28;20428;-83
2022/08/22 12:04:40;;;;;;;2.10;1.90;;;;;;;;;;4996848;28;20941;-85
2022/08/22 12:07:06;;;;;;;2.22;1.92;;;;;;;;;;5015447;28;20393;-84
2022/08/22 12:09:34;;;;;;;2.17;1.98;;;;;;;;;;5012545;28;20391;-85
2022/08/22 12:12:13;;;;;;;1.90;1.70;;;;;;;;;;5012778;28;20720;-86
2022/08/22 12:14:57;;;;;;;2.67;2.00;;;;;;;;;;5012794;28;20393;-87
2022/08/22 12:17:23;;;;;;;3.20;1.95;;;;;;;;;;5012523;28;20373;-84
2022/08/22 12:19:49;;;;;;;3.25;2.05;;;;;;;;;;5012594;28;20786;-84
2022/08/22 12:22:34;;;;;;;2.67;2.17;;;;;;;;;;4994860;28;20392;-82
2022/08/22 12:25:03;;;;;;;2.47;1.90;;;;;;;;;;5012411;28;20423;-83
2022/08/22 12:27:29;;;;;;;2.17;2.00;;;;;;;;;;5012580;28;20373;-83
2022/08/22 12:29:55;;;;;;;2.65;2.20;;;;;;;;;;5012540;28;20476;-83
2022/08/22 12:32:21;;;;;;;2.40;1.95;;;;;;;;;;5012394;28;20381;-83
2022/08/22 12:34:50;;;;;;;2.70;2.33;;;;;;;;;;5012521;28;20472;-83
2022/08/22 12:37:34;;;;;;;3.45;2.20;;;;;;;;;;4995100;28;20393;-83
2022/08/22 12:40:10;;;;;;;2.30;1.90;;;;;;;;;;5011875;28;20381;-81
2022/08/22 12:42:51;;;;;;;5.10;2.07;;;;;;;;;;5012481;28;20389;-81
2022/08/22 12:45:46;;;;;;;2.70;2.10;;;;;;;;;;5012001;28;20396;-84
2022/08/22 12:48:18;;;;;;;2.40;1.90;;;;;;;;;;4944958;28;20788;-84
2022/08/22 12:51:17;;;;;;;2.30;2.00;;;;;;;;;;5016087;28;20392;-83
2022/08/22 12:54:06;;;;;;;3.60;2.05;;;;;;;;;;4974206;28;20487;-83
2022/08/22 12:56:47;;;;;;;3.45;2.08;;;;;;;;;;5015613;28;20435;-84
2022/08/22 12:59:22;;;;;;;2.83;2.30;;;;;;;;;;5016208;28;20388;-84
2022/08/22 13:01:50;;;;;;;2.53;2.15;;;;;;;;;;5015921;28;20761;-83
2022/08/22 13:04:18;;;;;;;2.20;2.00;;;;;;;;;;5016137;28;20464;-84
2022/08/22 13:06:51;;;;;;;2.33;2.00;;;;;;;;;;5016255;28;20385;-84
2022/08/22 13:09:31;;;;;;;2.42;2.20;;;;;;;;;;4998706;28;20479;-85
2022/08/22 13:11:59;;;;;;;2.75;2.03;;;;;;;;;;5026243;28;20391;-84
2022/08/22 13:14:26;;;;;;;1.65;1.55;;;;;;;;;;5018144;28;20451;-84
2022/08/22 13:16:54;;;;;;;2.20;1.92;;;;;;;;;;5015817;28;20384;-85
2022/08/22 13:19:23;;;;;;;3.88;2.00;;;;;;;;;;4997566;28;20385;-85
2022/08/22 13:21:54;;;;;;;1.95;1.70;;;;;;;;;;5015658;28;20392;-84
2022/08/22 13:24:26;;;;;;;2.43;1.93;;;;;;;;;;5013588;28;20385;-84
2022/08/22 13:26:55;;;;;;;3.08;1.80;;;;;;;;;;5015757;28;20397;-84
2022/08/22 13:29:23;;;;;;;2.53;1.98;;;;;;;;;;5015708;28;20838;-86
2022/08/22 13:31:54;;;;;;;2.40;2.17;;;;;;;;;;4998532;28;20440;-87
2022/08/22 13:34:28;;;;;;;3.28;2.08;;;;;;;;;;5021582;28;20407;-86
2022/08/22 13:36:57;;;;;;;2.38;2.17;;;;;;;;;;5014098;28;20784;-85
2022/08/22 13:39:31;;;;;;;2.23;1.87;;;;;;;;;;4998637;28;20561;-88
2022/08/22 13:41:59;;;;;;;3.25;1.90;;;;;;;;;;5015984;28;20837;-90
2022/08/22 13:44:30;;;;;;;3.05;1.90;;;;;;;;;;4996754;28;20452;-89
2022/08/22 13:47:19;;;;;;;3.27;2.00;;;;;;;;;;4994752;28;20399;-88
2022/08/22 13:49:48;;;;;;;2.55;2.10;;;;;;;;;;4996432;28;20428;-88
2022/08/22 13:52:29;;;;;;;2.37;2.10;;;;;;;;;;4998805;28;20862;-85
2022/08/22 13:55:09;;;;;;;3.28;1.90;;;;;;;;;;5011769;28;20508;-87
2022/08/22 13:57:45;;;;;;;3.85;2.00;;;;;;;;;;5014682;28;20392;-88
2022/08/22 14:00:11;;;;;;;2.65;2.20;;;;;;;;;;5008746;28;20454;-88
2022/08/22 14:02:57;;;;;;;5.65;2.20;;;;;;;;;;5014797;28;20397;-87
2022/08/22 14:05:44;;;;;;;2.05;1.77;;;;;;;;;;5014172;28;20408;-88
2022/08/22 14:08:19;;;;;;;3.08;1.90;;;;;;;;;;4997424;28;20421;-88
2022/08/22 14:10:50;;;;;;;1.92;1.80;;;;;;;;;;5013146;28;20396;-87
2022/08/22 14:13:35;;;;;;;2.80;2.10;;;;;;;;;;5000605;28;20934;-87
2022/08/22 14:16:02;;;;;;;1.85;1.55;;;;;;;;;;5006321;28;20404;-87
2022/08/22 14:18:35;;;;;;;3.22;1.77;;;;;;;;;;5014812;28;20385;-89
2022/08/22 14:21:25;;;;;;;2.95;1.85;;;;;;;;;;5010599;28;20374;-88
2022/08/22 14:23:52;;;;;;;2.55;1.65;;;;;;;;;;5000871;28;20385;-88
2022/08/22 14:26:25;;;;;;;3.03;1.90;;;;;;;;;;5014946;28;20397;-88
2022/08/22 14:28:55;;;;;;;3.05;1.92;;;;;;;;;;5005694;28;20902;-87
2022/08/22 14:31:23;;;;;;;2.10;1.77;;;;;;;;;;5011128;28;20506;-88
2022/08/22 14:34:01;;;;;;;2.25;1.70;;;;;;;;;;5013670;28;20415;-88
2022/08/22 14:36:29;;;;;;;3.00;1.58;;;;;;;;;;5014362;28;20424;-89
2022/08/22 14:38:59;;;;;;;2.85;1.50;;;;;;;;;;5013719;28;20388;-88
2022/08/22 14:41:33;;;;;;;1.83;1.60;;;;;;;;;;5014129;28;20381;-88
2022/08/22 14:43:59;;;;;;;1.63;1.52;;;;;;;;;;5014744;28;20442;-86
2022/08/22 14:46:28;;;;;;;2.30;1.58;;;;;;;;;;5013324;28;21085;-88
2022/08/22 14:49:10;;;;;;;1.88;1.70;;;;;;;;;;4996326;28;20401;-87
2022/08/22 14:51:36;;;;;;;2.53;1.80;;;;;;;;;;5014017;28;20416;-88
2022/08/22 14:54:17;;;;;;;1.70;1.60;;;;;;;;;;5013934;28;20474;-87
2022/08/22 14:56:44;;;;;;;2.20;1.90;;;;;;;;;;5014189;28;20857;-85
2022/08/22 14:59:27;;;;;;;2.67;1.83;;;;;;;;;;5013875;28;20377;-86
2022/08/22 15:01:53;;;;;;;2.60;1.70;;;;;;;;;;5013749;28;20404;-85
2022/08/22 15:04:45;;;;;;;2.40;1.80;;;;;;;;;;5013870;28;20853;-84
2022/08/22 15:07:19;;;;;;;2.97;2.03;;;;;;;;;;5011784;28;20397;-85
2022/08/22 15:09:51;;;;;;;3.10;1.60;;;;;;;;;;5000696;28;20393;-84
2022/08/22 15:12:23;;;;;;;2.83;1.90;;;;;;;;;;5013266;28;20412;-86
2022/08/22 15:14:51;;;;;;;2.08;1.90;;;;;;;;;;5013662;28;20850;-86
2022/08/22 15:17:31;;;;;;;2.50;1.90;;;;;;;;;;5013626;28;20423;-83
2022/08/22 15:20:26;;;;;;;2.10;1.90;;;;;;;;;;5012803;28;21340;-85
2022/08/22 15:22:54;;;;;;;2.10;1.90;;;;;;;;;;5011474;28;20396;-84
2022/08/22 15:25:19;;;;;;;4.90;1.83;;;;;;;;;;5013410;28;20419;-85
2022/08/22 15:28:01;;;;;;;2.90;2.43;;;;;;;;;;4995408;28;20377;-85
2022/08/22 15:30:35;;;;;;;2.20;1.90;;;;;;;;;;5013525;28;20456;-87
2022/08/22 15:33:16;;;;;;;2.40;1.90;;;;;;;;;;5013211;28;20413;-87
2022/08/22 15:35:43;;;;;;;2.10;1.90;;;;;;;;;;5004698;28;20727;-88
2022/08/22 15:38:32;;;;;;;2.78;1.75;;;;;;;;;;5010257;28;20453;-88
2022/08/22 15:41:17;;;;;;;2.10;1.90;;;;;;;;;;4994245;28;20389;-87
2022/08/22 15:43:48;;;;;;;2.40;2.05;;;;;;;;;;5000551;28;20904;-86
2022/08/22 15:46:23;;;;;;;2.00;1.80;;;;;;;;;;5013276;28;20392;-85
2022/08/22 15:48:56;;;;;;;2.05;1.65;;;;;;;;;;5013602;28;20389;-87
2022/08/22 15:51:47;;;;;;;1.65;1.55;;;;;;;;;;5019307;28;20386;-86
2022/08/22 15:54:16;;;;;;;1.90;1.73;;;;;;;;;;5012976;28;20444;-87
2022/08/22 15:56:51;;;;;;;2.80;1.50;;;;;;;;;;4995605;28;20495;-87
2022/08/22 15:59:32;;;;;;;1.70;1.60;;;;;;;;;;5012979;28;20384;-90
2022/08/22 16:02:05;;;;;;;1.85;1.70;;;;;;;;;;4995219;28;20396;-87
2022/08/22 16:04:33;;;;;;;3.13;1.95;;;;;;;;;;5014680;28;20382;-88
2022/08/22 16:07:00;;;;;;;2.93;2.00;;;;;;;;;;5022242;28;20923;-87
2022/08/22 16:09:31;;;;;;;3.20;1.90;;;;;;;;;;4994879;28;20420;-88
2022/08/22 16:11:57;;;;;;;2.03;1.83;;;;;;;;;;5014833;28;20393;-88
2022/08/22 16:14:44;;;;;;;2.30;1.80;;;;;;;;;;4998195;28;20959;-88
2022/08/22 16:17:30;;;;;;;2.95;1.90;;;;;;;;;;5013491;28;20383;-87
2022/08/22 16:20:08;;;;;;;2.40;1.70;;;;;;;;;;4988507;28;20485;-86
2022/08/22 16:23:05;;;;;;;2.75;1.90;;;;;;;;;;4994388;28;20527;-85
2022/08/22 16:25:46;;;;;;;2.08;1.88;;;;;;;;;;5003806;28;20396;-85
2022/08/22 16:28:27;;;;;;;1.92;1.70;;;;;;;;;;5012228;28;20416;-85
2022/08/22 16:30:54;;;;;;;2.38;1.67;;;;;;;;;;5012503;28;20879;-85
2022/08/22 16:33:31;;;;;;;1.70;1.60;;;;;;;;;;5012438;28;20544;-85
2022/08/22 16:36:33;;;;;;;2.17;1.95;;;;;;;;;;5012602;28;20877;-85
2022/08/22 16:39:00;;;;;;;1.83;1.60;;;;;;;;;;4971542;28;20471;-85
2022/08/22 16:41:30;;;;;;;1.60;1.50;;;;;;;;;;5007508;28;20379;-85
2022/08/22 16:44:13;;;;;;;2.25;1.67;;;;;;;;;;5011258;28;20424;-86
2022/08/22 16:46:42;;;;;;;2.40;2.17;;;;;;;;;;5011287;28;20454;-84
2022/08/22 16:49:09;;;;;;;2.45;1.90;;;;;;;;;;5012360;28;20388;-85
2022/08/22 16:51:55;;;;;;;2.70;1.95;;;;;;;;;;5013494;28;20860;-83
2022/08/22 16:54:44;;;;;;;2.40;1.70;;;;;;;;;;5012723;28;20487;-84
2022/08/22 16:57:19;;;;;;;2.10;1.63;;;;;;;;;;5010788;28;20442;-83
2022/08/22 17:00:11;;;;;;;2.08;1.88;;;;;;;;;;5011306;28;20417;-84
2022/08/22 17:02:46;;;;;;;2.05;1.85;;;;;;;;;;5001268;28;20491;-84
2022/08/22 17:05:32;;;;;;;2.92;1.70;;;;;;;;;;5011195;28;20388;-83
2022/08/22 17:08:17;;;;;;;1.65;1.55;;;;;;;;;;4987439;28;20391;-83
2022/08/22 17:10:46;;;;;;;2.30;1.58;;;;;;;;;;4993777;28;20476;-83
2022/08/22 17:13:23;;;;;;;3.40;1.90;;;;;;;;;;5005450;28;20416;-83
2022/08/22 17:15:52;;;;;;;1.95;1.70;;;;;;;;;;5011434;28;20400;-84
2022/08/22 17:18:39;;;;;;;1.88;1.75;;;;;;;;;;5011418;28;20395;-84
2022/08/22 17:21:21;;;;;;;2.92;1.80;;;;;;;;;;5008657;28;20431;-84
2022/08/22 17:23:50;;;;;;;2.40;1.77;;;;;;;;;;5002915;28;20420;-84
2022/08/22 17:26:39;;;;;;;1.92;1.77;;;;;;;;;;5012011;28;20416;-84
2022/08/22 17:29:05;;;;;;;2.20;1.90;;;;;;;;;;5006184;28;20400;-84
2022/08/22 17:31:40;;;;;;;2.63;1.90;;;;;;;;;;5011848;28;20385;-84
2022/08/22 17:34:30;;;;;;;2.90;1.80;;;;;;;;;;5013901;28;20411;-84
2022/08/22 17:37:04;;;;;;;1.90;1.70;;;;;;;;;;5016042;28;20408;-84
2022/08/22 17:39:40;;;;;;;3.77;2.03;;;;;;;;;;5015426;28;20427;-84
2022/08/22 17:42:07;;;;;;;2.33;2.08;;;;;;;;;;5014909;28;20373;-84
2022/08/22 17:44:45;;;;;;;2.15;1.90;;;;;;;;;;5012457;28;20396;-84
2022/08/22 17:47:14;;;;;;;2.75;2.10;;;;;;;;;;5003328;28;20403;-83
2022/08/22 17:49:40;;;;;;;2.67;1.97;;;;;;;;;;5015378;28;20949;-83
2022/08/22 17:52:10;;;;;;;2.30;1.90;;;;;;;;;;5015148;28;20464;-83
2022/08/22 17:54:46;;;;;;;1.98;1.88;;;;;;;;;;5015211;28;20463;-83
2022/08/22 17:57:33;;;;;;;2.33;2.13;;;;;;;;;;5015017;28;20472;-83
2022/08/22 18:00:11;;;;;;;3.15;2.03;;;;;;;;;;5013789;28;20884;-84
2022/08/22 18:02:46;;;;;;;2.33;2.13;;;;;;;;;;5012346;28;20403;-83
2022/08/22 18:05:23;;;;;;;3.97;2.30;;;;;;;;;;5014363;28;20377;-83
2022/08/22 18:07:55;;;;;;;3.42;2.30;;;;;;;;;;5013165;28;20864;-83
2022/08/22 18:10:24;;;;;;;4.55;2.20;;;;;;;;;;4996610;28;20480;-83
2022/08/22 18:13:09;;;;;;;3.00;2.70;;;;;;;;;;5014486;28;20416;-82
2022/08/22 18:15:38;;;;;;;4.63;3.10;;;;;;;;;;5014484;28;20381;-84
2022/08/22 18:18:12;;;;;;;5.47;3.13;;;;;;;;;;5014709;28;20384;-84
2022/08/22 18:20:44;;;;;;;4.35;2.92;;;;;;;;;;5015254;28;20384;-85
2022/08/22 18:23:21;;;;;;;4.45;3.50;;;;;;;;;;5015084;28;20476;-83
2022/08/22 18:25:56;;;;;;;9.25;6.10;;;;;;;;;;5014912;28;20417;-85
2022/08/22 18:28:33;;;;;;;5.43;4.53;;;;;;;;;;5014712;28;20387;-84
2022/08/22 18:31:03;;;;;;;7.05;5.57;;;;;;;;;;5014701;28;20475;-83
2022/08/22 18:33:29;;;;;;;7.45;5.07;;;;;;;;;;5014655;28;20432;-83
2022/08/22 18:36:00;;;;;;;6.28;5.20;;;;;;;;;;5014458;28;20471;-83
2022/08/22 18:38:33;;;;;;;4.70;4.22;;;;;;;;;;5014360;28;20404;-84
2022/08/22 18:41:10;;;;;;;6.72;3.80;;;;;;;;;;4996677;28;20464;-84
2022/08/22 18:43:37;;;;;;;3.17;2.85;;;;;;;;;;5014117;28;20912;-83
2022/08/22 18:46:24;;;;;;;4.10;2.70;;;;;;;;;;5013089;28;20880;-85
2022/08/22 18:48:50;;;;;;;2.72;2.53;;;;;;;;;;5014238;28;20388;-84
2022/08/22 18:51:16;;;;;;;4.25;3.10;;;;;;;;;;5014185;28;20858;-84
2022/08/22 18:53:51;;;;;;;4.80;2.60;;;;;;;;;;5014040;28;20408;-84
2022/08/22 18:56:17;;;;;;;2.40;2.20;;;;;;;;;;5014049;28;20467;-84
2022/08/22 18:58:53;;;;;;;3.75;2.35;;;;;;;;;;5014028;28;20396;-84
2022/08/22 19:01:22;;;;;;;2.67;2.33;;;;;;;;;;5013577;28;20415;-85
2022/08/22 19:04:11;;;;;;;5.07;2.80;;;;;;;;;;5013138;28;20392;-84
2022/08/22 19:06:40;;;;;;;3.17;2.42;;;;;;;;;;4998567;28;20476;-83
2022/08/22 19:09:25;;;;;;;2.92;2.58;;;;;;;;;;5012310;28;20387;-82
2022/08/22 19:11:57;;;;;;;2.63;2.42;;;;;;;;;;5012037;28;20385;-82
2022/08/22 19:14:29;;;;;;;4.00;2.53;;;;;;;;;;5012968;28;20401;-83
2022/08/22 19:17:18;;;;;;;3.03;2.72;;;;;;;;;;5013683;28;20412;-83
2022/08/22 19:22:32;;;;;;;3.88;2.70;;;;;;;;;;5013513;28;20408;-83
2022/08/22 19:25:07;;;;;;;3.63;2.90;;;;;;;;;;5013323;28;20868;-83
2022/08/22 19:27:35;;;;;;;3.35;2.85;;;;;;;;;;5013857;28;20393;-83
2022/08/22 19:30:04;;;;;;;2.80;2.50;;;;;;;;;;4999837;28;20419;-82
2022/08/22 19:32:40;;;;;;;3.30;2.80;;;;;;;;;;5013109;28;20377;-82
2022/08/22 19:35:20;;;;;;;2.60;2.40;;;;;;;;;;5013247;28;20395;-82
2022/08/22 19:37:54;;;;;;;3.85;2.90;;;;;;;;;;5013261;28;20410;-83
2022/08/22 19:40:39;;;;;;;3.80;2.60;;;;;;;;;;5010835;28;20384;-83
2022/08/22 19:43:24;;;;;;;3.03;2.50;;;;;;;;;;5010192;28;20381;-83
2022/08/22 19:45:50;;;;;;;4.95;2.65;;;;;;;;;;5009972;28;20727;-83
2022/08/22 19:48:22;;;;;;;3.45;2.90;;;;;;;;;;5013205;28;20781;-83
2022/08/22 19:51:05;;;;;;;2.75;2.55;;;;;;;;;;5012427;28;20412;-82
2022/08/22 19:53:39;;;;;;;2.92;2.72;;;;;;;;;;5012990;28;20453;-81
2022/08/22 19:56:11;;;;;;;3.10;2.80;;;;;;;;;;5013109;28;20385;-82
2022/08/22 19:58:51;;;;;;;3.78;2.60;;;;;;;;;;5012662;28;20837;-81
2022/08/22 20:01:37;;;;;;;3.67;2.72;;;;;;;;;;4995210;28;20412;-81
2022/08/22 20:04:07;;;;;;;3.17;2.80;;;;;;;;;;4995217;28;20809;-81
2022/08/22 20:06:44;;;;;;;3.60;2.75;;;;;;;;;;5012961;28;20412;-81
2022/08/22 20:09:29;;;;;;;2.87;2.63;;;;;;;;;;5014063;28;20495;-81
2022/08/22 20:11:58;;;;;;;3.00;2.70;;;;;;;;;;5009128;28;20374;-81
2022/08/22 20:14:24;;;;;;;3.25;3.05;;;;;;;;;;5015358;28;20413;-82
2022/08/22 20:17:02;;;;;;;4.33;2.93;;;;;;;;;;5015882;28;20460;-81
2022/08/22 20:19:56;;;;;;;4.07;2.95;;;;;;;;;;4996650;28;20387;-81
2022/08/22 20:22:24;;;;;;;3.88;2.78;;;;;;;;;;5001838;28;21062;-82
2022/08/22 20:24:56;;;;;;;3.08;2.78;;;;;;;;;;5001741;28;20414;-81
2022/08/22 20:27:29;;;;;;;3.47;3.03;;;;;;;;;;5012230;28;20400;-81
2022/08/22 20:30:05;;;;;;;5.13;3.20;;;;;;;;;;4991812;28;20381;-81
2022/08/22 20:32:32;;;;;;;3.25;2.80;;;;;;;;;;5009774;28;20396;-81